createdAt,value
2018-10-03T00:00:16.683Z,12.74
2018-10-03T00:05:19.829Z,12.89
2018-10-03T00:10:22.937Z,12.84
2018-10-03T00:15:26.044Z,12.81
2018-10-03T00:20:29.191Z,12.66
2018-10-03T00:25:32.279Z,12.53
2018-10-03T00:30:35.354Z,12.57
2018-10-03T00:35:38.470Z,12.55
2018-10-03T00:40:41.560Z,12.49
2018-10-03T00:45:44.675Z,12.56
2018-10-03T00:50:47.717Z,12.67
2018-10-03T00:55:50.806Z,12.77
2018-10-03T01:00:53.916Z,12.81
2018-10-03T01:05:56.994Z,12.66
2018-10-03T01:11:00.072Z,12.61
2018-10-03T01:16:03.272Z,12.59
2018-10-03T01:21:06.399Z,12.65
2018-10-03T01:26:09.483Z,12.79
2018-10-03T01:31:12.682Z,12.84
2018-10-03T01:36:15.775Z,12.86
2018-10-03T01:41:18.887Z,12.91
2018-10-03T01:46:21.936Z,13.00
2018-10-03T01:51:25.015Z,12.94
2018-10-03T01:56:28.210Z,12.90
2018-10-03T02:01:31.314Z,12.75
2018-10-03T02:06:34.419Z,12.62
2018-10-03T02:11:37.481Z,12.56
2018-10-03T02:16:40.571Z,12.53
2018-10-03T02:21:43.655Z,12.67
2018-10-03T02:26:46.767Z,12.85
2018-10-03T02:31:49.883Z,12.78
2018-10-03T02:36:52.987Z,12.67
2018-10-03T02:41:56.068Z,12.67
2018-10-03T02:46:59.175Z,12.84
2018-10-03T02:52:03.093Z,12.88
2018-10-03T02:57:06.475Z,12.96
2018-10-03T03:02:09.560Z,13.01
2018-10-03T03:07:12.709Z,13.09
2018-10-03T03:12:15.862Z,13.05
2018-10-03T03:17:19.146Z,13.13
2018-10-03T03:22:22.274Z,13.14
2018-10-03T03:27:25.355Z,13.18
2018-10-03T03:32:28.423Z,13.27
2018-10-03T03:37:31.527Z,13.19
2018-10-03T03:42:34.583Z,12.95
2018-10-03T03:47:37.648Z,12.99
2018-10-03T03:52:40.719Z,13.19
2018-10-03T03:57:43.867Z,13.32
2018-10-03T04:02:46.997Z,13.43
2018-10-03T04:07:50.071Z,13.57
2018-10-03T04:12:53.150Z,13.58
2018-10-03T04:17:56.195Z,13.48
2018-10-03T04:22:59.271Z,13.50
2018-10-03T04:28:02.350Z,13.60
2018-10-03T04:33:05.423Z,13.63
2018-10-03T04:38:08.475Z,13.68
2018-10-03T04:43:11.558Z,13.63
2018-10-03T04:48:14.639Z,13.49
2018-10-03T04:53:17.732Z,13.45
2018-10-03T04:58:20.789Z,13.34
2018-10-03T05:03:23.863Z,13.34
2018-10-03T05:08:27.040Z,13.36
2018-10-03T05:13:30.157Z,13.51
2018-10-03T05:18:33.256Z,13.62
2018-10-03T05:23:36.403Z,13.61
2018-10-03T05:28:39.498Z,13.55
2018-10-03T05:33:42.675Z,13.44
2018-10-03T05:38:45.819Z,13.31
2018-10-03T05:43:49.139Z,13.19
2018-10-03T05:48:52.332Z,13.19
2018-10-03T05:53:55.491Z,13.15
2018-10-03T05:58:58.587Z,13.21
2018-10-03T06:04:01.737Z,13.21
2018-10-03T06:09:08.906Z,13.31
2018-10-03T06:14:12.097Z,13.33
2018-10-03T06:19:15.267Z,13.24
2018-10-03T06:24:18.674Z,13.30
2018-10-03T06:29:23.075Z,13.39
2018-10-03T06:34:26.698Z,13.41
2018-10-03T06:39:30.093Z,13.50
2018-10-03T06:44:33.536Z,13.64
2018-10-03T06:49:37.824Z,13.69
2018-10-03T06:54:41.038Z,13.75
2018-10-03T06:59:44.252Z,13.99
2018-10-03T07:04:47.556Z,14.10
2018-10-03T07:09:50.779Z,14.12
2018-10-03T07:14:55.127Z,14.00
2018-10-03T07:19:59.426Z,14.14
2018-10-03T07:25:03.534Z,14.31
2018-10-03T07:30:09.144Z,14.09
2018-10-03T07:35:13.229Z,14.08
2018-10-03T07:40:17.926Z,14.34
2018-10-03T07:45:22.484Z,14.67
2018-10-03T07:50:27.423Z,14.80
2018-10-03T07:55:31.937Z,14.88
2018-10-03T08:00:36.657Z,14.98
2018-10-03T08:05:41.175Z,15.36
2018-10-03T08:10:45.369Z,15.66
2018-10-03T08:15:49.800Z,15.94
2018-10-03T08:20:54.294Z,15.62
2018-10-03T08:25:58.711Z,15.36
2018-10-03T08:31:02.830Z,15.59
2018-10-03T08:36:07.024Z,15.81
2018-10-03T08:41:17.507Z,16.22
2018-10-03T08:46:21.880Z,16.30
2018-10-03T08:51:26.783Z,16.35
2018-10-03T08:56:30.888Z,16.29
2018-10-03T09:01:35.115Z,16.45
2018-10-03T09:06:40.586Z,16.51
2018-10-03T09:11:43.887Z,16.74
2018-10-03T09:16:46.963Z,16.81
2018-10-03T09:21:50.250Z,16.81
2018-10-03T09:26:53.436Z,17.06
2018-10-03T09:31:56.636Z,16.75
2018-10-03T09:36:59.811Z,16.82
2018-10-03T09:42:02.967Z,16.64
2018-10-03T09:47:06.365Z,16.75
2018-10-03T09:52:09.432Z,17.04
2018-10-03T09:57:12.641Z,17.12
2018-10-03T10:02:15.751Z,17.24
2018-10-03T10:07:18.891Z,16.89
2018-10-03T10:12:22.063Z,16.75
2018-10-03T10:17:25.227Z,16.58
2018-10-03T10:22:28.359Z,16.64
2018-10-03T10:27:31.543Z,16.82
2018-10-03T10:32:35.023Z,17.03
2018-10-03T10:37:38.139Z,17.65
2018-10-03T10:42:43.782Z,18.25
2018-10-03T10:47:46.988Z,18.74
2018-10-03T10:52:50.219Z,18.52
2018-10-03T10:57:53.367Z,18.18
2018-10-03T11:02:56.590Z,18.18
2018-10-03T11:07:59.757Z,17.70
2018-10-03T11:13:04.062Z,17.37
2018-10-03T11:18:07.349Z,17.16
2018-10-03T11:23:10.759Z,17.73
2018-10-03T11:28:14.075Z,18.35
2018-10-03T11:33:17.504Z,18.79
2018-10-03T11:38:20.859Z,19.10
2018-10-03T11:43:24.089Z,19.29
2018-10-03T11:48:27.273Z,19.06
2018-10-03T11:53:30.444Z,19.08
2018-10-03T11:58:33.767Z,18.99
2018-10-03T12:03:37.444Z,18.81
2018-10-03T12:08:40.848Z,18.50
2018-10-03T12:13:44.067Z,18.51
2018-10-03T12:18:47.278Z,18.42
2018-10-03T12:23:50.479Z,18.70
2018-10-03T12:28:53.571Z,18.70
2018-10-03T12:33:56.803Z,18.47
2018-10-03T12:38:59.952Z,18.80
2018-10-03T12:44:03.197Z,18.93
2018-10-03T12:49:06.336Z,18.75
2018-10-03T12:54:09.588Z,18.96
2018-10-03T12:59:12.896Z,19.08
2018-10-03T13:04:16.147Z,19.09
2018-10-03T13:09:19.409Z,19.17
2018-10-03T13:14:22.625Z,19.43
2018-10-03T13:19:25.814Z,19.45
2018-10-03T13:24:28.921Z,19.03
2018-10-03T13:29:32.052Z,19.19
2018-10-03T13:34:35.289Z,19.33
2018-10-03T13:39:38.634Z,18.87
2018-10-03T13:44:41.920Z,18.32
2018-10-03T13:49:45.154Z,18.31
2018-10-03T13:54:48.282Z,18.64
2018-10-03T13:59:51.433Z,18.64
2018-10-03T14:04:54.541Z,18.29
2018-10-03T14:09:57.663Z,18.42
2018-10-03T14:15:00.787Z,18.29
2018-10-03T14:20:04.205Z,18.63
2018-10-03T14:25:07.372Z,18.67
2018-10-03T14:30:10.495Z,18.54
2018-10-03T14:35:13.941Z,18.32
2018-10-03T14:40:17.247Z,18.44
2018-10-03T14:45:20.396Z,18.22
2018-10-03T14:50:23.573Z,18.34
2018-10-03T14:55:26.696Z,18.43
2018-10-03T15:00:29.964Z,18.37
2018-10-03T15:05:33.155Z,18.68
2018-10-03T15:10:36.432Z,18.66
2018-10-03T15:15:39.581Z,18.37
2018-10-03T15:20:42.751Z,18.19
2018-10-03T15:25:45.840Z,18.05
2018-10-03T15:30:49.322Z,18.00
2018-10-03T15:35:52.384Z,17.86
2018-10-03T15:40:55.634Z,17.71
2018-10-03T15:45:58.787Z,17.60
2018-10-03T15:51:01.986Z,17.46
2018-10-03T15:56:05.156Z,17.40
2018-10-03T16:01:08.338Z,17.41
2018-10-03T16:06:11.390Z,17.38
2018-10-03T16:11:14.570Z,17.40
2018-10-03T16:16:17.677Z,17.40
2018-10-03T16:21:20.889Z,17.54
2018-10-03T16:26:23.988Z,17.50
2018-10-03T16:31:27.136Z,17.50
2018-10-03T16:36:30.300Z,17.41
2018-10-03T16:41:33.474Z,17.34
2018-10-03T16:46:36.745Z,17.31
2018-10-03T16:51:39.955Z,17.23
2018-10-03T16:56:43.103Z,17.07
2018-10-03T17:01:48.232Z,16.98
2018-10-03T17:06:52.639Z,16.85
2018-10-03T17:11:56.852Z,16.66
2018-10-03T17:16:59.996Z,16.47
2018-10-03T17:22:03.652Z,16.25
2018-10-03T17:27:06.832Z,16.03
2018-10-03T17:32:09.902Z,15.95
2018-10-03T17:37:13.012Z,15.85
2018-10-03T17:42:16.336Z,15.78
2018-10-03T17:47:19.524Z,15.84
2018-10-03T17:52:22.675Z,15.85
2018-10-03T17:57:25.908Z,15.86
2018-10-03T18:02:29.225Z,15.90
2018-10-03T18:07:32.376Z,15.89
2018-10-03T18:12:35.572Z,15.70
2018-10-03T18:17:38.823Z,15.60
2018-10-03T18:22:41.992Z,15.54
2018-10-03T18:27:45.190Z,15.55
2018-10-03T18:32:48.423Z,15.53
2018-10-03T18:37:51.628Z,15.43
2018-10-03T18:42:54.811Z,15.27
2018-10-03T18:47:58.055Z,15.07
2018-10-03T18:53:01.280Z,14.84
2018-10-03T18:58:04.548Z,14.62
2018-10-03T19:03:07.708Z,14.44
2018-10-03T19:08:10.868Z,14.31
2018-10-03T19:13:13.988Z,14.19
2018-10-03T19:18:17.098Z,14.06
2018-10-03T19:23:20.143Z,13.93
2018-10-03T19:28:23.239Z,13.78
2018-10-03T19:33:26.336Z,13.60
2018-10-03T19:38:29.454Z,13.55
2018-10-03T19:43:32.667Z,13.49
2018-10-03T19:48:35.799Z,13.38
2018-10-03T19:53:38.803Z,13.30
2018-10-03T19:58:41.891Z,13.23
2018-10-03T20:03:44.969Z,13.14
2018-10-03T20:08:48.043Z,13.05
2018-10-03T20:13:51.188Z,12.95
2018-10-03T20:18:54.227Z,12.88
2018-10-03T20:23:57.299Z,12.88
2018-10-03T20:29:00.383Z,12.84
2018-10-03T20:34:03.507Z,12.73
2018-10-03T20:39:08.210Z,12.58
2018-10-03T20:44:11.281Z,12.47
2018-10-03T20:49:14.372Z,12.42
2018-10-03T20:54:17.511Z,12.39
2018-10-03T20:59:20.558Z,12.38
2018-10-03T21:04:23.667Z,12.36
2018-10-03T21:09:26.762Z,12.31
2018-10-03T21:14:29.851Z,12.20
2018-10-03T21:19:32.939Z,12.11
2018-10-03T21:24:36.019Z,12.10
2018-10-03T21:29:39.347Z,12.12
2018-10-03T21:34:42.406Z,12.18
2018-10-03T21:39:45.470Z,12.17
2018-10-03T21:44:48.583Z,12.12
2018-10-03T21:49:51.709Z,12.07
2018-10-03T22:02:53.586Z,11.80
2018-10-03T22:07:56.649Z,11.87
2018-10-03T22:12:59.735Z,11.95
2018-10-03T22:18:02.796Z,11.95
2018-10-03T22:23:06.381Z,11.95
2018-10-03T22:28:09.379Z,11.93
2018-10-03T22:33:12.415Z,11.92
2018-10-03T22:38:15.513Z,12.00
2018-10-03T22:43:18.688Z,12.15
2018-10-03T22:48:21.767Z,12.25
2018-10-03T22:53:24.818Z,12.38
2018-10-03T22:58:27.881Z,12.51
2018-10-03T23:03:30.963Z,12.60
2018-10-03T23:14:14.666Z,12.74
2018-10-03T23:19:17.728Z,12.73
2018-10-03T23:24:20.783Z,12.65
2018-10-03T23:29:23.850Z,12.62
2018-10-03T23:34:26.928Z,12.57
2018-10-03T23:39:30.007Z,12.60
2018-10-03T23:44:33.071Z,12.69
2018-10-03T23:49:36.140Z,12.76
2018-10-03T23:54:39.298Z,12.80
2018-10-03T23:59:42.343Z,12.84
